createdAt,value
2022-10-13T00:00:02.838Z,6.56
2022-10-13T00:05:02.468Z,6.39
2022-10-13T00:10:03.149Z,6.51
2022-10-13T00:15:02.840Z,6.43
2022-10-13T00:20:02.712Z,6.3
2022-10-13T00:25:03.457Z,6.24
2022-10-13T00:30:03.774Z,6.34
2022-10-13T00:35:02.964Z,6.41
2022-10-13T00:40:03.163Z,6.22
2022-10-13T00:45:02.916Z,5.56
2022-10-13T00:50:02.491Z,5.75
2022-10-13T00:55:04.510Z,6.01
2022-10-13T01:00:02.975Z,5.91
2022-10-13T01:05:02.640Z,5.81
2022-10-13T01:10:03.332Z,5.59
2022-10-13T01:15:03.020Z,5.23
2022-10-13T01:20:03.273Z,5.87
2022-10-13T01:25:02.883Z,5.74
2022-10-13T01:30:02.695Z,5.78
2022-10-13T01:35:02.386Z,5.84
2022-10-13T01:40:03.040Z,5.89
2022-10-13T01:45:03.030Z,5.82
2022-10-13T01:50:03.088Z,5.75
2022-10-13T01:55:03.747Z,5.75
2022-10-13T02:00:02.599Z,5.9
2022-10-13T02:05:02.391Z,5.75
2022-10-13T02:10:02.998Z,5.76
2022-10-13T02:15:02.923Z,6.13
2022-10-13T02:20:03.314Z,6.23
2022-10-13T02:25:02.927Z,6.2
2022-10-13T02:30:02.595Z,6.14
2022-10-13T02:35:03.186Z,6.29
2022-10-13T02:40:02.817Z,6.08
2022-10-13T02:45:02.543Z,6.12
2022-10-13T02:50:03.157Z,6.15
2022-10-13T02:55:03.963Z,6.14
2022-10-13T03:00:02.417Z,6.02
2022-10-13T03:05:03.133Z,6.03
2022-10-13T03:10:02.638Z,6.11
2022-10-13T03:15:03.349Z,6.1
2022-10-13T03:20:02.980Z,6.18
2022-10-13T03:25:02.593Z,6.33
2022-10-13T03:30:03.257Z,6.46
2022-10-13T03:35:02.862Z,6.43
2022-10-13T03:40:02.645Z,6.44
2022-10-13T03:45:03.308Z,6.47
2022-10-13T03:50:03.210Z,6.08
2022-10-13T03:55:04.246Z,6.4
2022-10-13T04:00:02.509Z,6.38
2022-10-13T04:05:03.128Z,6.48
2022-10-13T04:10:02.784Z,6.69
2022-10-13T04:15:02.450Z,6.76
2022-10-13T04:20:02.448Z,6.77
2022-10-13T04:25:03.145Z,6.6
2022-10-13T04:30:02.758Z,6.66
2022-10-13T04:35:02.606Z,6.69
2022-10-13T04:40:03.329Z,6.73
2022-10-13T04:45:02.887Z,6.66
2022-10-13T04:50:02.477Z,6.73
2022-10-13T04:55:04.387Z,6.77
2022-10-13T05:00:02.830Z,6.84
2022-10-13T05:05:02.491Z,6.86
2022-10-13T05:10:03.142Z,6.78
2022-10-13T05:15:02.816Z,7.02
2022-10-13T05:20:02.475Z,7.15
2022-10-13T05:25:03.212Z,7.22
2022-10-13T05:30:02.910Z,7.23
2022-10-13T05:35:02.539Z,7.29
2022-10-13T05:40:03.182Z,7.35
2022-10-13T05:45:02.715Z,7.49
2022-10-13T05:50:02.541Z,7.57
2022-10-13T05:55:04.381Z,7.63
2022-10-13T06:00:02.688Z,7.68
2022-10-13T06:05:03.766Z,7.81
2022-10-13T06:10:03.181Z,7.91
2022-10-13T06:15:02.887Z,8.05
2022-10-13T06:20:02.617Z,8.18
2022-10-13T06:25:03.252Z,8.2
2022-10-13T06:30:02.971Z,8.31
2022-10-13T06:35:02.616Z,8.49
2022-10-13T06:40:03.243Z,8.55
2022-10-13T06:45:02.978Z,8.68
2022-10-13T06:50:02.455Z,8.71
2022-10-13T06:55:04.339Z,8.76
2022-10-13T07:00:02.949Z,9.24
2022-10-13T07:05:02.594Z,9.65
2022-10-13T07:10:03.177Z,10.37
2022-10-13T07:15:02.852Z,11.5
2022-10-13T07:20:07.336Z,11.51
2022-10-13T07:25:03.216Z,12.33
2022-10-13T07:30:02.944Z,12.41
2022-10-13T07:35:02.551Z,12.34
2022-10-13T07:40:03.275Z,13.01
2022-10-13T07:45:03.091Z,13.08
2022-10-13T07:50:02.736Z,13.18
2022-10-13T07:55:03.678Z,13.59
2022-10-13T08:00:03.236Z,13.9
2022-10-13T08:05:02.889Z,13.81
2022-10-13T08:10:02.645Z,13.72
2022-10-13T08:15:06.776Z,15.08
2022-10-13T08:20:02.920Z,15.52
2022-10-13T08:25:02.570Z,15.21
2022-10-13T08:30:03.556Z,15.47
2022-10-13T08:35:02.855Z,16.13
2022-10-13T08:40:02.588Z,17.01
2022-10-13T08:45:41.194Z,16.4
2022-10-13T08:50:03.111Z,16.25
2022-10-13T08:55:03.837Z,15.85
2022-10-13T09:00:02.441Z,15.85
2022-10-13T09:05:03.077Z,16.12
2022-10-13T09:10:02.832Z,16.29
2022-10-13T09:15:02.505Z,16.14
2022-10-13T09:20:03.235Z,16.84
2022-10-13T09:25:03.022Z,17.51
2022-10-13T09:30:03.180Z,17.27
2022-10-13T09:35:02.763Z,17.33
2022-10-13T09:40:02.436Z,17.12
2022-10-13T09:45:03.126Z,16.85
2022-10-13T09:50:07.683Z,16.8
2022-10-13T09:55:03.737Z,17.56
2022-10-13T10:00:03.432Z,18.13
2022-10-13T10:05:03.021Z,17.91
2022-10-13T10:10:02.894Z,17.58
2022-10-13T10:15:02.785Z,17.4
2022-10-13T10:20:02.432Z,17.02
2022-10-13T10:25:03.077Z,16.54
2022-10-13T10:30:02.851Z,16.81
2022-10-13T10:35:02.441Z,17.02
2022-10-13T10:40:03.121Z,16.69
2022-10-13T10:45:02.840Z,16.9
2022-10-13T10:50:02.413Z,16.69
2022-10-13T10:55:04.410Z,17.7
2022-10-13T11:00:02.831Z,18.27
2022-10-13T11:05:06.721Z,17
2022-10-13T11:10:03.130Z,17.14
2022-10-13T11:15:02.821Z,16.92
2022-10-13T11:20:02.451Z,17.89
2022-10-13T11:25:03.057Z,17.82
2022-10-13T11:30:02.731Z,17.57
2022-10-13T11:35:02.395Z,17.65
2022-10-13T11:40:03.036Z,17.91
2022-10-13T11:45:02.737Z,17.47
2022-10-13T11:50:03.296Z,17.74
2022-10-13T11:55:04.218Z,18.25
2022-10-13T12:00:02.700Z,18.13
2022-10-13T12:05:02.322Z,18.31
2022-10-13T12:10:03.011Z,18.63
2022-10-13T12:15:07.261Z,18.29
2022-10-13T12:20:02.393Z,18.97
2022-10-13T12:25:02.938Z,18.3
2022-10-13T12:30:02.642Z,17.66
2022-10-13T12:35:03.249Z,17.34
2022-10-13T12:40:02.874Z,17.23
2022-10-13T12:45:03.000Z,17.32
2022-10-13T12:50:02.558Z,17.2
2022-10-13T12:55:04.631Z,17.71
2022-10-13T13:00:02.801Z,17.93
2022-10-13T13:05:02.498Z,17.9
2022-10-13T13:10:03.152Z,17.95
2022-10-13T13:15:03.021Z,18.46
2022-10-13T13:20:02.958Z,20.27
2022-10-13T13:25:03.320Z,19.76
2022-10-13T13:30:03.318Z,18.2
2022-10-13T13:35:02.721Z,18.62
2022-10-13T13:40:02.469Z,19.05
2022-10-13T13:45:02.998Z,19.02
2022-10-13T13:50:02.984Z,18.62
2022-10-13T13:55:04.202Z,19.38
2022-10-13T14:00:03.435Z,18.52
2022-10-13T14:05:02.853Z,18.04
2022-10-13T14:10:02.952Z,18.03
2022-10-13T14:15:02.559Z,17.64
2022-10-13T14:20:03.194Z,17.51
2022-10-13T14:25:02.950Z,17.52
2022-10-13T14:30:02.715Z,18.31
2022-10-13T14:35:03.184Z,18.93
2022-10-13T14:40:02.760Z,19.05
2022-10-13T14:45:02.417Z,18.27
2022-10-13T14:50:03.032Z,18.08
2022-10-13T14:55:04.155Z,18.48
2022-10-13T15:00:02.653Z,18.26
2022-10-13T15:05:03.031Z,17.66
2022-10-13T15:10:06.073Z,17.11
2022-10-13T15:15:03.378Z,16.64
2022-10-13T15:20:03.007Z,16.28
2022-10-13T15:25:02.717Z,15.97
2022-10-13T15:30:02.397Z,15.75
2022-10-13T15:35:03.010Z,15.59
2022-10-13T15:40:03.005Z,15.28
2022-10-13T15:45:11.299Z,15.05
2022-10-13T15:50:02.775Z,14.94
2022-10-13T15:55:03.952Z,14.92
2022-10-13T16:00:03.269Z,14.76
2022-10-13T16:05:02.870Z,14.55
2022-10-13T16:10:02.970Z,14.3
2022-10-13T16:15:02.907Z,14.25
2022-10-13T16:20:03.250Z,14.13
2022-10-13T16:25:02.936Z,13.59
2022-10-13T16:30:02.597Z,13.01
2022-10-13T16:35:03.191Z,12.68
2022-10-13T16:40:02.833Z,12.36
2022-10-13T16:45:02.621Z,12.43
2022-10-13T16:50:02.473Z,12.43
2022-10-13T16:55:04.694Z,11.97
2022-10-13T17:00:02.874Z,11.71
2022-10-13T17:05:02.519Z,11.71
2022-10-13T17:10:03.275Z,11.85
2022-10-13T17:15:02.959Z,12.02
2022-10-13T17:20:02.560Z,12.29
2022-10-13T17:25:03.055Z,12.39
2022-10-13T17:30:02.862Z,12.26
2022-10-13T17:35:03.333Z,11.84
2022-10-13T17:40:03.263Z,11.76
2022-10-13T17:45:02.872Z,11.77
2022-10-13T17:50:02.677Z,11.96
2022-10-13T17:55:03.547Z,11.85
2022-10-13T18:00:03.417Z,11.52
2022-10-13T18:05:02.635Z,11.21
2022-10-13T18:10:02.602Z,11.31
2022-10-13T18:15:03.117Z,11.33
2022-10-13T18:20:02.644Z,11.44
2022-10-13T18:25:02.525Z,11.5
2022-10-13T18:30:03.199Z,11.37
2022-10-13T18:35:02.890Z,11.38
2022-10-13T18:40:02.526Z,10.8
2022-10-13T18:45:03.195Z,10.56
2022-10-13T18:50:03.030Z,10.89
2022-10-13T18:55:03.687Z,10.85
2022-10-13T19:00:02.558Z,10.87
2022-10-13T19:05:03.225Z,11.17
2022-10-13T19:10:02.915Z,10.62
2022-10-13T19:15:02.554Z,10.43
2022-10-13T19:20:03.275Z,10.2
2022-10-13T19:25:02.877Z,10.54
2022-10-13T19:30:02.752Z,10.54
2022-10-13T19:35:03.312Z,10.18
2022-10-13T19:40:02.822Z,9.94
2022-10-13T19:45:02.756Z,9.87
2022-10-13T19:50:02.522Z,9.86
2022-10-13T19:55:04.181Z,9.72
2022-10-13T20:00:02.623Z,9.74
2022-10-13T20:05:02.464Z,10.38
2022-10-13T20:10:03.197Z,10.29
2022-10-13T20:15:03.103Z,10.1
2022-10-13T20:20:02.877Z,10.32
2022-10-13T20:25:02.362Z,9.93
2022-10-13T20:30:03.188Z,9.67
2022-10-13T20:35:02.910Z,9.53
2022-10-13T20:40:02.436Z,9.77
2022-10-13T20:45:03.211Z,9.78
2022-10-13T20:50:02.830Z,9.78
2022-10-13T20:55:04.487Z,9.88
2022-10-13T21:00:02.851Z,9.68
2022-10-13T21:05:02.525Z,9.42
2022-10-13T21:10:03.273Z,9.45
2022-10-13T21:15:02.988Z,9.63
2022-10-13T21:20:02.853Z,9.26
2022-10-13T21:25:02.384Z,9.1
2022-10-13T21:30:03.083Z,9.47
2022-10-13T21:35:02.799Z,9.28
2022-10-13T21:40:02.601Z,9.58
2022-10-13T21:45:03.125Z,9.79
2022-10-13T21:50:02.684Z,9.93
2022-10-13T21:55:04.089Z,10.02
2022-10-13T22:00:03.313Z,10.19
2022-10-13T22:05:02.737Z,10.31
2022-10-13T22:10:02.394Z,10.32
2022-10-13T22:15:03.145Z,10.37
2022-10-13T22:20:02.787Z,10.42
2022-10-13T22:25:02.551Z,10.46
2022-10-13T22:30:03.292Z,10.58
2022-10-13T22:35:02.875Z,10.69
2022-10-13T22:40:02.943Z,10.87
2022-10-13T22:45:03.361Z,10.81
2022-10-13T22:50:02.947Z,10.58
2022-10-13T22:55:04.021Z,10.26
2022-10-13T23:00:03.311Z,9.86
2022-10-13T23:05:02.958Z,9.89
2022-10-13T23:10:02.439Z,9.95
2022-10-13T23:15:03.107Z,9.82
2022-10-13T23:20:02.758Z,9.55
2022-10-13T23:25:02.485Z,9.55
2022-10-13T23:30:03.346Z,9.54
2022-10-13T23:35:02.922Z,9.51
2022-10-13T23:40:02.650Z,9.52
2022-10-13T23:45:03.369Z,9.53
2022-10-13T23:50:02.940Z,9.45
2022-10-13T23:55:04.149Z,9.49
